Time;durP1;ratioP1;P1;durP2;ratioP2;P2;SDS_P1;SDS_P2;PMS_P1;PMS_P2;Temp;Humidity;BMP_temperature;BMP_pressure;BME280_temperature;BME280_humidity;BME280_pressure;Samples;Min_cycle;Max_cycle;Signal;HPM_P1;HPM_P2
2022/09/11 00:03:49;;;;;;;;;;;;;;;22.33;47.92;95740.41;10244995;28;3326;-48
2022/09/11 00:08:52;;;;;;;;;;;;;;;22.31;47.94;95739.88;10246184;28;2682;-48
2022/09/11 00:13:53;;;;;;;;;;;;;;;22.31;47.81;95725.91;10241534;28;2726;-48
2022/09/11 00:18:54;;;;;;;;;;;;;;;22.29;47.90;95728.81;10245352;28;3189;-49
2022/09/11 00:23:54;;;;;;;;;;;;;;;22.31;47.72;95734.59;10240974;28;3182;-48
2022/09/11 00:28:54;;;;;;;;;;;;;;;22.30;47.76;95730.38;10245658;28;2757;-48
2022/09/11 00:33:55;;;;;;;;;;;;;;;22.30;47.66;95734.88;10244030;28;2703;-48
2022/09/11 00:38:56;;;;;;;;;;;;;;;22.28;47.85;95721.97;10245665;28;2694;-48
2022/09/11 00:43:58;;;;;;;;;;;;;;;22.28;47.55;95723.81;10241983;28;2834;-48
2022/09/11 00:48:58;;;;;;;;;;;;;;;22.30;47.81;95717.19;10260450;28;2731;-48
2022/09/11 00:53:58;;;;;;;;;;;;;;;22.28;47.67;95726.44;10248470;28;2733;-49
2022/09/11 00:59:00;;;;;;;;;;;;;;;22.27;47.77;95730.97;10254383;28;2649;-49
2022/09/11 01:04:02;;;;;;;;;;;;;;;22.26;47.62;95729.38;10260234;28;3164;-48
2022/09/11 01:09:02;;;;;;;;;;;;;;;22.26;47.69;95726.75;10252682;28;2735;-49
2022/09/11 01:14:02;;;;;;;;;;;;;;;22.25;47.73;95727.81;10248684;28;2770;-48
2022/09/11 01:19:02;;;;;;;;;;;;;;;22.25;47.92;95725.19;10258866;28;2750;-49
2022/09/11 01:24:09;;;;;;;;;;;;;;;22.25;47.85;95717.25;10250054;28;2713;-49
2022/09/11 01:29:12;;;;;;;;;;;;;;;22.24;47.75;95714.88;10253444;28;2753;-49
2022/09/11 01:34:14;;;;;;;;;;;;;;;22.23;47.88;95718.63;10254339;28;2726;-48
2022/09/11 01:39:15;;;;;;;;;;;;;;;22.24;47.49;95720.16;10263726;28;2723;-48
2022/09/11 01:44:35;;;;;;;;;;;;;;;22.22;47.46;95717.03;10266224;28;3138;-49
2022/09/11 01:49:37;;;;;;;;;;;;;;;22.22;47.78;95725.75;10250187;28;3214;-49
2022/09/11 01:54:41;;;;;;;;;;;;;;;22.20;47.68;95714.69;10247702;28;3151;-48
2022/09/11 01:59:43;;;;;;;;;;;;;;;22.20;47.39;95705.97;10249715;28;2590;-49
2022/09/11 02:05:03;;;;;;;;;;;;;;;22.19;47.67;95710.47;10262889;28;2849;-49
2022/09/11 02:10:08;;;;;;;;;;;;;;;22.19;47.68;95707.06;10247118;28;2558;-49
2022/09/11 02:15:12;;;;;;;;;;;;;;;22.21;47.22;95718.09;10257328;28;2803;-48
2022/09/11 02:20:12;;;;;;;;;;;;;;;22.16;47.35;95708.41;10249352;28;2586;-48
2022/09/11 02:25:13;;;;;;;;;;;;;;;22.15;47.40;95706.84;10260715;28;2605;-48
2022/09/11 02:30:13;;;;;;;;;;;;;;;22.16;47.46;95705.75;10249166;28;2602;-48
2022/09/11 02:35:15;;;;;;;;;;;;;;;22.16;47.26;95712.88;10246972;28;2928;-48
2022/09/11 02:40:21;;;;;;;;;;;;;;;22.15;47.63;95698.91;10264978;28;2609;-49
2022/09/11 02:45:34;;;;;;;;;;;;;;;22.16;47.71;95700.47;10243124;28;2637;-48
2022/09/11 02:50:47;;;;;;;;;;;;;;;22.15;47.09;95700.78;10247544;28;3164;-49
2022/09/11 02:56:04;;;;;;;;;;;;;;;22.15;47.43;95696.28;10251381;28;2746;-49
2022/09/11 03:01:07;;;;;;;;;;;;;;;22.14;47.55;95699.97;10247391;28;3240;-48
2022/09/11 03:06:09;;;;;;;;;;;;;;;22.14;47.52;95694.69;10260907;28;3328;-49
2022/09/11 03:11:09;;;;;;;;;;;;;;;22.14;47.42;95693.91;10259602;28;2769;-48
2022/09/11 03:16:10;;;;;;;;;;;;;;;22.13;47.41;95687.06;10246127;28;3397;-49
2022/09/11 03:21:10;;;;;;;;;;;;;;;22.13;47.37;95692.34;10245062;28;2609;-48
2022/09/11 03:26:10;;;;;;;;;;;;;;;22.12;47.23;95693.41;10247711;28;3241;-48
2022/09/11 03:31:12;;;;;;;;;;;;;;;22.13;47.24;95692.34;10257481;28;2738;-48
2022/09/11 03:36:12;;;;;;;;;;;;;;;22.10;47.21;95685.78;10244685;28;2746;-47
2022/09/11 03:41:13;;;;;;;;;;;;;;;22.11;46.88;95684.72;10260154;28;2726;-48
2022/09/11 03:46:13;;;;;;;;;;;;;;;22.10;47.10;95679.72;10243208;28;3158;-49
2022/09/11 03:51:14;;;;;;;;;;;;;;;22.10;47.14;95688.41;10245960;28;2649;-48
2022/09/11 03:56:14;;;;;;;;;;;;;;;22.09;47.33;95681.56;10245047;28;2749;-48
2022/09/11 04:01:16;;;;;;;;;;;;;;;22.09;47.08;95678.91;10246000;28;2829;-48
2022/09/11 04:06:17;;;;;;;;;;;;;;;22.09;47.05;95689.47;10257569;28;3289;-49
2022/09/11 04:11:17;;;;;;;;;;;;;;;22.08;47.21;95682.63;10243269;28;2730;-48
2022/09/11 04:16:18;;;;;;;;;;;;;;;22.07;47.19;95681.06;10245178;28;2686;-48
2022/09/11 04:21:18;;;;;;;;;;;;;;;22.06;46.91;95673.44;10245165;28;2679;-48
2022/09/11 04:26:21;;;;;;;;;;;;;;;22.06;47.35;95676.84;10246871;28;3205;-48
2022/09/11 04:31:22;;;;;;;;;;;;;;;22.06;46.98;95679.50;10251815;28;2612;-41
2022/09/11 04:36:24;;;;;;;;;;;;;;;22.05;47.27;95680.56;10251659;28;2729;-42
2022/09/11 04:41:25;;;;;;;;;;;;;;;22.05;47.01;95683.19;10255662;28;3309;-41
2022/09/11 04:46:25;;;;;;;;;;;;;;;22.05;46.99;95677.91;10250729;28;3209;-42
2022/09/11 04:51:32;;;;;;;;;;;;;;;22.06;47.11;95676.06;10253728;28;2726;-42
2022/09/11 04:56:33;;;;;;;;;;;;;;;22.03;46.97;95682.69;10276467;28;2590;-41
2022/09/11 05:01:34;;;;;;;;;;;;;;;22.03;47.04;95692.47;10255247;28;2597;-48
2022/09/11 05:06:35;;;;;;;;;;;;;;;22.03;47.05;95687.22;10254902;28;2722;-49
2022/09/11 05:11:35;;;;;;;;;;;;;;;22.03;46.98;95693.25;10253342;28;3197;-48
2022/09/11 05:16:36;;;;;;;;;;;;;;;22.02;46.86;95696.19;10251866;28;2655;-48
2022/09/11 05:21:37;;;;;;;;;;;;;;;22.01;47.11;95699.91;10251715;28;2786;-49
2022/09/11 05:26:37;;;;;;;;;;;;;;;22.01;47.13;95707.81;10248884;28;2785;-49
2022/09/11 05:31:39;;;;;;;;;;;;;;;22.00;46.85;95696.47;10245872;28;2699;-48
2022/09/11 05:36:40;;;;;;;;;;;;;;;21.98;47.30;95693.31;10247196;28;2782;-48
2022/09/11 05:41:40;;;;;;;;;;;;;;;21.99;47.11;95708.09;10251560;28;3186;-48
2022/09/11 05:46:40;;;;;;;;;;;;;;;22.00;47.02;95709.66;10248101;28;2741;-49
2022/09/11 05:51:41;;;;;;;;;;;;;;;21.99;47.23;95718.63;10251378;28;2535;-48
2022/09/11 05:56:41;;;;;;;;;;;;;;;22.00;46.94;95730.00;10246581;28;2809;-48
2022/09/11 06:01:42;;;;;;;;;;;;;;;21.98;46.76;95726.84;10247004;28;2691;-49
2022/09/11 06:06:42;;;;;;;;;;;;;;;21.98;46.77;95724.22;10250992;28;2771;-48
2022/09/11 06:11:42;;;;;;;;;;;;;;;21.96;46.76;95724.50;10250503;28;3214;-49
2022/09/11 06:16:43;;;;;;;;;;;;;;;21.98;46.86;95737.41;10244436;28;2623;-48
2022/09/11 06:21:43;;;;;;;;;;;;;;;21.97;46.95;95746.41;10248847;28;2765;-49
2022/09/11 06:26:45;;;;;;;;;;;;;;;21.97;47.11;95741.88;10249918;28;2730;-42
2022/09/11 06:31:50;;;;;;;;;;;;;;;21.98;47.08;95747.97;10248087;28;2759;-43
2022/09/11 06:36:50;;;;;;;;;;;;;;;21.99;47.18;95746.91;10241333;28;2705;-42
2022/09/11 06:41:52;;;;;;;;;;;;;;;21.98;47.11;95753.25;10241289;28;2867;-41
2022/09/11 06:46:52;;;;;;;;;;;;;;;21.97;46.82;95749.03;10245913;28;2726;-42
2022/09/11 06:51:53;;;;;;;;;;;;;;;21.96;47.18;95758.00;10246545;28;2746;-41
2022/09/11 06:56:53;;;;;;;;;;;;;;;21.98;47.02;95759.31;10246129;28;2705;-41
2022/09/11 07:01:54;;;;;;;;;;;;;;;21.98;47.23;95769.88;10244578;28;3362;-41
2022/09/11 07:06:54;;;;;;;;;;;;;;;21.98;47.41;95764.59;10245383;28;3123;-41
2022/09/11 07:11:54;;;;;;;;;;;;;;;21.99;47.55;95766.16;10245628;28;3177;-42
2022/09/11 07:16:54;;;;;;;;;;;;;;;22.00;47.39;95773.00;10242144;28;3099;-43
2022/09/11 07:21:55;;;;;;;;;;;;;;;22.00;47.81;95767.75;10244926;28;3137;-42
2022/09/11 07:26:55;;;;;;;;;;;;;;;22.01;47.78;95779.84;10245380;28;2742;-43
2022/09/11 07:31:57;;;;;;;;;;;;;;;22.03;47.86;95782.22;10242451;28;2727;-40
2022/09/11 07:36:57;;;;;;;;;;;;;;;22.04;47.94;95791.72;10246856;28;3279;-41
2022/09/11 07:41:58;;;;;;;;;;;;;;;22.09;48.01;95794.31;10243699;28;3202;-43
2022/09/11 07:46:59;;;;;;;;;;;;;;;22.07;48.03;95791.91;10259849;28;3208;-45
2022/09/11 07:52:02;;;;;;;;;;;;;;;22.08;48.28;95804.06;10242116;28;2633;-43
2022/09/11 07:57:02;;;;;;;;;;;;;;;22.10;48.02;95809.84;10244078;28;2710;-40
2022/09/11 08:02:03;;;;;;;;;;;;;;;22.17;47.75;95804.22;10243188;28;3194;-40
2022/09/11 08:07:03;;;;;;;;;;;;;;;22.17;48.14;95810.31;10241520;28;2602;-40
2022/09/11 08:12:05;;;;;;;;;;;;;;;22.15;48.21;95807.16;10242216;28;3281;-45
2022/09/11 08:17:05;;;;;;;;;;;;;;;22.23;47.44;95809.19;10241883;28;2755;-45
2022/09/11 08:22:05;;;;;;;;;;;;;;;22.20;47.98;95819.50;10242186;28;3186;-45
2022/09/11 08:27:06;;;;;;;;;;;;;;;22.21;48.19;95834.28;10237285;28;2549;-48
2022/09/11 08:32:07;;;;;;;;;;;;;;;22.21;48.38;95844.84;10224013;28;2650;-48
2022/09/11 08:37:13;;;;;;;;;;;;;;;22.16;49.09;95855.44;10239575;28;3194;-48
2022/09/11 08:42:14;;;;;;;;;;;;;;;22.12;51.61;95860.50;10243025;28;2558;-47
2022/09/11 08:47:21;;;;;;;;;;;;;;;22.04;52.73;95849.78;10254746;28;3182;-48
2022/09/11 08:52:21;;;;;;;;;;;;;;;21.97;53.36;95855.38;10258544;28;2653;-48
2022/09/11 08:57:25;;;;;;;;;;;;;;;21.91;54.43;95864.41;10251760;28;2809;-47
2022/09/11 09:02:25;;;;;;;;;;;;;;;21.89;55.06;95874.47;10254166;28;2716;-48
2022/09/11 09:07:26;;;;;;;;;;;;;;;21.84;55.49;95866.63;10242111;28;2769;-47
2022/09/11 09:12:31;;;;;;;;;;;;;;;21.82;55.85;95871.38;10247778;28;3205;-48
2022/09/11 09:17:32;;;;;;;;;;;;;;;21.81;55.83;95875.03;10248303;28;3223;-47
2022/09/11 09:22:41;;;;;;;;;;;;;;;21.81;55.10;95880.31;10249681;28;2711;-47
2022/09/11 09:27:44;;;;;;;;;;;;;;;21.76;55.73;95878.50;10262391;28;2757;-48
2022/09/11 09:32:46;;;;;;;;;;;;;;;21.75;55.24;95887.50;10249176;28;2741;-48
2022/09/11 09:37:47;;;;;;;;;;;;;;;21.74;55.50;95879.88;10243802;28;2881;-48
2022/09/11 09:43:00;;;;;;;;;;;;;;;21.72;56.10;95882.00;10248455;28;3146;-48
2022/09/11 09:48:01;;;;;;;;;;;;;;;21.72;56.12;95897.84;10249036;28;2634;-48
2022/09/11 09:53:02;;;;;;;;;;;;;;;21.70;56.42;95884.91;10245063;28;2594;-40
2022/09/11 09:58:02;;;;;;;;;;;;;;;21.69;56.51;95893.09;10251046;28;2743;-40
2022/09/11 10:03:32;;;;;;;;;;;;;;;21.67;56.94;95898.66;10261704;28;2574;-40
2022/09/11 10:08:32;;;;;;;;;;;;;;;21.65;57.35;95900.00;10232277;28;2674;-41
2022/09/11 10:13:36;;;;;;;;;;;;;;;21.63;57.08;95900.28;10241599;28;2694;-41
2022/09/11 10:18:41;;;;;;;;;;;;;;;21.62;57.44;95901.31;10246256;28;2696;-40
2022/09/11 10:23:45;;;;;;;;;;;;;;;21.59;57.16;95901.09;10246216;28;3143;-41
2022/09/11 10:28:46;;;;;;;;;;;;;;;21.61;57.21;95906.88;10247800;28;3346;-40
2022/09/11 10:33:50;;;;;;;;;;;;;;;21.62;57.49;95903.97;10246582;28;3186;-41
2022/09/11 10:38:50;;;;;;;;;;;;;;;21.65;57.77;95908.69;10244729;28;2730;-41
2022/09/11 10:44:01;;;;;;;;;;;;;;;21.69;57.98;95904.44;10243859;28;2633;-40
2022/09/11 10:49:01;;;;;;;;;;;;;;;21.78;58.31;95915.97;10260890;28;2625;-42
2022/09/11 10:54:13;;;;;;;;;;;;;;;21.83;58.21;95909.88;10245322;28;3178;-42
2022/09/11 10:59:16;;;;;;;;;;;;;;;21.90;55.90;95910.38;10248989;28;3248;-45
2022/09/11 11:04:22;;;;;;;;;;;;;;;21.94;56.97;95911.38;10242453;28;3080;-42
2022/09/11 11:09:22;;;;;;;;;;;;;;;21.98;57.92;95914.25;10244645;28;2739;-45
2022/09/11 11:14:28;;;;;;;;;;;;;;;21.98;57.67;95909.75;10239786;28;3228;-42
2022/09/11 11:19:47;;;;;;;;;;;;;;;21.96;58.47;95911.91;10242408;28;2803;-43
2022/09/11 11:24:47;;;;;;;;;;;;;;;21.92;59.06;95918.78;10241704;28;2710;-43
2022/09/11 11:30:20;;;;;;;;;;;;;;;21.90;59.02;95923.56;10244446;28;2622;-45
2022/09/11 11:35:24;;;;;;;;;;;;;;;21.91;58.62;95933.03;10229146;28;2609;-42
2022/09/11 11:40:25;;;;;;;;;;;;;;;21.89;58.64;95929.88;10238947;28;2629;-43
2022/09/11 11:45:31;;;;;;;;;;;;;;;21.91;57.99;95935.69;10237139;28;3214;-44
2022/09/11 11:50:38;;;;;;;;;;;;;;;21.94;57.54;95935.13;10224032;28;3154;-45
2022/09/11 11:55:38;;;;;;;;;;;;;;;22.01;55.30;95940.88;10246386;28;3189;-47
2022/09/11 12:00:40;;;;;;;;;;;;;;;22.03;54.56;95945.88;10247035;28;2680;-49
2022/09/11 12:05:41;;;;;;;;;;;;;;;22.05;56.53;95936.59;10242780;28;3188;-43
2022/09/11 12:10:56;;;;;;;;;;;;;;;22.06;57.25;95940.84;10238177;28;2763;-45
2022/09/11 12:16:16;;;;;;;;;;;;;;;22.02;57.07;95945.09;10240997;28;2761;-45
2022/09/11 12:21:36;;;;;;;;;;;;;;;22.03;57.71;95936.09;10240409;28;3146;-44
2022/09/11 12:26:36;;;;;;;;;;;;;;;22.07;58.58;95942.38;10242085;28;2796;-45
2022/09/11 12:31:48;;;;;;;;;;;;;;;22.04;58.39;95935.03;10245524;28;2667;-42
2022/09/11 12:36:50;;;;;;;;;;;;;;;22.03;56.74;95938.72;10240653;28;2869;-44
2022/09/11 12:41:50;;;;;;;;;;;;;;;22.03;57.76;95938.72;10240234;28;3272;-42
2022/09/11 12:46:53;;;;;;;;;;;;;;;22.04;57.37;95934.25;10259324;28;2729;-44
2022/09/11 12:51:57;;;;;;;;;;;;;;;22.04;59.54;95942.16;10246896;28;2686;-44
2022/09/11 12:57:02;;;;;;;;;;;;;;;22.05;57.22;95933.97;10248111;28;2725;-42
2022/09/11 13:02:02;;;;;;;;;;;;;;;22.03;58.08;95937.97;10245345;28;2624;-44
2022/09/11 13:07:04;;;;;;;;;;;;;;;22.02;59.04;95941.66;10245896;28;3182;-43
2022/09/11 13:12:22;;;;;;;;;;;;;;;21.98;59.06;95936.16;10249448;28;2601;-45
2022/09/11 13:17:24;;;;;;;;;;;;;;;21.98;58.59;95928.25;10252084;28;2598;-43
2022/09/11 13:22:29;;;;;;;;;;;;;;;21.95;58.87;95928.78;10248750;28;3194;-43
2022/09/11 13:27:30;;;;;;;;;;;;;;;21.96;58.19;95930.38;10250529;28;2811;-46
2022/09/11 13:32:31;;;;;;;;;;;;;;;21.97;56.57;95931.94;10251686;28;3115;-43
2022/09/11 13:37:34;;;;;;;;;;;;;;;21.97;56.16;95926.66;10249737;28;2810;-45
2022/09/11 13:42:35;;;;;;;;;;;;;;;21.97;57.89;95924.00;10246256;28;3193;-46
2022/09/11 13:47:37;;;;;;;;;;;;;;;21.98;58.27;95932.72;10246650;28;2641;-45
2022/09/11 13:52:43;;;;;;;;;;;;;;;22.01;57.04;95921.63;10260932;28;2875;-43
2022/09/11 13:57:57;;;;;;;;;;;;;;;22.03;57.07;95922.13;10248318;28;2714;-44
2022/09/11 14:02:59;;;;;;;;;;;;;;;22.05;55.77;95923.41;10244729;28;3155;-44
2022/09/11 14:08:03;;;;;;;;;;;;;;;22.07;56.72;95929.19;10246477;28;3157;-43
2022/09/11 14:13:11;;;;;;;;;;;;;;;22.08;55.19;95922.84;10245746;28;2727;-43
2022/09/11 14:18:12;;;;;;;;;;;;;;;22.10;55.68;95919.94;10250613;28;2628;-44
2022/09/11 14:23:22;;;;;;;;;;;;;;;22.11;55.16;95916.25;10258219;28;2702;-45
2022/09/11 14:28:34;;;;;;;;;;;;;;;22.09;55.18;95916.50;10264089;28;2670;-47
2022/09/11 14:33:34;;;;;;;;;;;;;;;22.10;55.79;95904.88;10259053;28;2766;-44
2022/09/11 14:38:36;;;;;;;;;;;;;;;22.09;55.66;95908.59;10247570;28;3051;-45
2022/09/11 14:43:37;;;;;;;;;;;;;;;22.10;55.53;95902.25;10245479;28;2746;-47
2022/09/11 14:48:37;;;;;;;;;;;;;;;22.09;55.25;95916.50;10251431;28;2677;-45
2022/09/11 14:53:38;;;;;;;;;;;;;;;22.05;55.93;95912.84;10247040;28;2635;-44
2022/09/11 14:58:38;;;;;;;;;;;;;;;22.06;54.67;95913.63;10245437;28;2686;-47
2022/09/11 15:03:38;;;;;;;;;;;;;;;22.02;55.38;95908.13;10243706;28;2726;-44
2022/09/11 15:08:39;;;;;;;;;;;;;;;22.01;55.89;95909.19;10246612;28;2606;-45
2022/09/11 15:13:39;;;;;;;;;;;;;;;21.99;55.20;95903.41;10246503;28;3060;-46
2022/09/11 15:18:40;;;;;;;;;;;;;;;21.99;55.41;95905.28;10241976;28;3231;-45
2022/09/11 15:23:45;;;;;;;;;;;;;;;22.00;55.90;95906.84;10242156;28;3294;-45
2022/09/11 15:28:49;;;;;;;;;;;;;;;22.00;55.70;95912.91;10247096;28;3149;-43
2022/09/11 15:33:50;;;;;;;;;;;;;;;22.00;55.00;95899.72;10245157;28;3240;-45
2022/09/11 15:38:53;;;;;;;;;;;;;;;22.01;55.41;95897.88;10244738;28;2633;-48
2022/09/11 15:43:53;;;;;;;;;;;;;;;22.01;56.05;95900.50;10245978;28;2578;-43
2022/09/11 15:48:54;;;;;;;;;;;;;;;22.02;55.69;95904.72;10244720;28;2753;-45
2022/09/11 15:53:57;;;;;;;;;;;;;;;22.01;55.91;95898.63;10259548;28;2725;-43
2022/09/11 15:58:58;;;;;;;;;;;;;;;22.01;55.46;95911.06;10246391;28;2634;-47
2022/09/11 16:04:03;;;;;;;;;;;;;;;22.00;55.71;95897.06;10244487;28;2730;-43
2022/09/11 16:09:07;;;;;;;;;;;;;;;22.00;56.40;95898.91;10243555;28;2582;-43
2022/09/11 16:14:07;;;;;;;;;;;;;;;22.00;55.17;95899.72;10244062;28;2658;-45
2022/09/11 16:19:07;;;;;;;;;;;;;;;21.99;55.50;95894.72;10244707;28;3429;-43
2022/09/11 16:24:08;;;;;;;;;;;;;;;21.99;55.53;95895.47;10252917;28;3382;-44
2022/09/11 16:29:11;;;;;;;;;;;;;;;21.99;55.50;95895.47;10258437;28;3392;-44
2022/09/11 16:34:11;;;;;;;;;;;;;;;21.99;55.75;95902.63;10260914;28;2829;-43
2022/09/11 16:39:12;;;;;;;;;;;;;;;21.98;54.98;95896.56;10253333;28;2860;-45
2022/09/11 16:44:13;;;;;;;;;;;;;;;21.99;55.54;95894.72;10256404;28;3329;-45
2022/09/11 16:49:14;;;;;;;;;;;;;;;21.98;55.02;95895.78;10255995;28;2935;-44
2022/09/11 16:54:15;;;;;;;;;;;;;;;21.98;55.06;95901.06;10273467;28;3048;-43
2022/09/11 16:59:15;;;;;;;;;;;;;;;21.98;55.48;95908.97;10254401;28;3484;-47
2022/09/11 17:04:16;;;;;;;;;;;;;;;21.96;54.89;95896.06;10251358;28;2910;-44
2022/09/11 17:09:16;;;;;;;;;;;;;;;21.96;55.20;95898.69;10256770;28;2818;-45
2022/09/11 17:14:18;;;;;;;;;;;;;;;21.97;55.12;95884.41;10258652;28;3384;-46
2022/09/11 17:19:18;;;;;;;;;;;;;;;21.95;55.27;95883.91;10253331;28;3391;-43
2022/09/11 17:24:20;;;;;;;;;;;;;;;21.95;54.87;95876.00;10257878;28;3242;-43
2022/09/11 17:29:21;;;;;;;;;;;;;;;21.95;55.27;95875.22;10257134;28;2808;-44
2022/09/11 17:34:21;;;;;;;;;;;;;;;21.94;55.17;95884.19;10250505;28;2903;-45
2022/09/11 17:39:22;;;;;;;;;;;;;;;22.14;54.69;95890.06;10256408;28;3014;-43
2022/09/11 17:44:32;;;;;;;;;;;;;;;22.27;53.87;95891.25;10250066;28;2800;-43
2022/09/11 17:49:33;;;;;;;;;;;;;;;22.36;53.22;95892.97;10255616;28;3329;-42
2022/09/11 17:54:39;;;;;;;;;;;;;;;22.33;53.18;95901.50;10249862;28;2713;-42
2022/09/11 17:59:39;;;;;;;;;;;;;;;22.30;53.90;95898.59;10250589;28;2958;-42
2022/09/11 18:04:39;;;;;;;;;;;;;;;22.27;53.65;95902.63;10265674;28;2698;-42
2022/09/11 18:09:40;;;;;;;;;;;;;;;22.25;53.90;95902.09;10248410;28;2851;-44
2022/09/11 18:14:42;;;;;;;;;;;;;;;22.22;53.60;95902.66;10252630;28;2771;-45
2022/09/11 18:19:43;;;;;;;;;;;;;;;22.19;53.84;95915.63;10247271;28;2915;-43
2022/09/11 18:24:43;;;;;;;;;;;;;;;22.17;54.38;95921.19;10247334;28;2658;-43
2022/09/11 18:29:44;;;;;;;;;;;;;;;22.14;54.40;95918.31;10229357;28;2673;-42
2022/09/11 18:34:47;;;;;;;;;;;;;;;22.11;53.85;95916.25;10231301;28;2745;-42
2022/09/11 18:39:47;;;;;;;;;;;;;;;22.01;53.62;95911.81;10244937;28;2866;-42
2022/09/11 18:44:47;;;;;;;;;;;;;;;21.96;53.00;95906.63;10244229;28;3404;-41
2022/09/11 18:49:49;;;;;;;;;;;;;;;21.94;52.55;95914.03;10242972;28;2893;-42
2022/09/11 18:54:50;;;;;;;;;;;;;;;21.95;53.02;95912.19;10245058;28;2883;-42
2022/09/11 18:59:50;;;;;;;;;;;;;;;21.93;52.85;95915.06;10262808;28;2781;-41
2022/09/11 19:04:51;;;;;;;;;;;;;;;22.02;54.19;95913.41;10251066;28;2750;-43
2022/09/11 19:09:52;;;;;;;;;;;;;;;22.02;54.15;95913.41;10251186;28;2733;-42
2022/09/11 19:14:53;;;;;;;;;;;;;;;21.99;55.01;95913.19;10246849;28;2813;-42
2022/09/11 19:19:53;;;;;;;;;;;;;;;21.94;54.17;95919.31;10249646;28;2831;-43
2022/09/11 19:24:53;;;;;;;;;;;;;;;21.92;54.49;95921.44;10250938;28;2758;-42
2022/09/11 19:29:54;;;;;;;;;;;;;;;21.90;54.16;95914.84;10250112;28;3254;-41
2022/09/11 19:34:54;;;;;;;;;;;;;;;21.91;54.19;95925.13;10247101;28;2718;-42
2022/09/11 19:39:57;;;;;;;;;;;;;;;21.93;54.73;95924.88;10243548;28;2974;-45
2022/09/11 19:44:57;;;;;;;;;;;;;;;21.95;55.35;95926.13;10260246;28;3290;-42
2022/09/11 19:49:58;;;;;;;;;;;;;;;21.95;55.24;95934.06;10243364;28;2772;-42
2022/09/11 19:54:58;;;;;;;;;;;;;;;21.97;54.23;95931.94;10245941;28;2748;-42
2022/09/11 19:59:58;;;;;;;;;;;;;;;21.94;55.43;95927.22;10244335;28;2991;-42
2022/09/11 20:04:59;;;;;;;;;;;;;;;21.93;55.45;95928.28;10244484;28;2939;-42
2022/09/11 20:09:59;;;;;;;;;;;;;;;21.93;55.72;95935.41;10249390;28;2835;-40
2022/09/11 20:14:59;;;;;;;;;;;;;;;21.92;55.01;95932.00;10245472;28;2733;-41
2022/09/11 20:20:00;;;;;;;;;;;;;;;21.90;54.84;95931.47;10244530;28;2971;-45
2022/09/11 20:25:00;;;;;;;;;;;;;;;21.90;54.61;95920.94;10244179;28;2771;-41
2022/09/11 20:30:01;;;;;;;;;;;;;;;21.89;54.95;95929.88;10243886;28;2714;-48
2022/09/11 20:35:01;;;;;;;;;;;;;;;21.88;55.00;95924.91;10252271;28;2885;-48
2022/09/11 20:40:02;;;;;;;;;;;;;;;21.87;55.15;95934.66;10248540;28;2738;-48
2022/09/11 20:45:03;;;;;;;;;;;;;;;21.85;54.49;95921.75;10248448;28;2740;-48
2022/09/11 20:50:03;;;;;;;;;;;;;;;21.81;54.22;95920.72;10248315;28;2705;-48
2022/09/11 20:55:04;;;;;;;;;;;;;;;21.78;54.11;95925.75;10244236;28;2765;-48
2022/09/11 21:00:06;;;;;;;;;;;;;;;21.77;54.09;95922.31;10241862;28;3309;-48
2022/09/11 21:05:06;;;;;;;;;;;;;;;21.79;54.08;95925.47;10245504;28;3305;-48
2022/09/11 21:10:06;;;;;;;;;;;;;;;21.79;53.80;95925.47;10249837;28;3408;-48
2022/09/11 21:15:08;;;;;;;;;;;;;;;21.77;54.16;95921.53;10248704;28;2890;-48
2022/09/11 21:20:08;;;;;;;;;;;;;;;21.77;53.58;95922.31;10245093;28;3346;-48
2022/09/11 21:25:08;;;;;;;;;;;;;;;21.76;53.25;95922.59;10248512;28;2847;-48
2022/09/11 21:30:09;;;;;;;;;;;;;;;21.74;52.77;95919.44;10247439;28;2868;-48
2022/09/11 21:35:09;;;;;;;;;;;;;;;21.73;53.07;95925.78;10249739;28;3339;-48
2022/09/11 21:40:09;;;;;;;;;;;;;;;21.74;52.75;95916.81;10255422;28;3421;-49
2022/09/11 21:45:09;;;;;;;;;;;;;;;21.75;53.01;95923.66;10252921;28;2837;-48
2022/09/11 21:50:10;;;;;;;;;;;;;;;21.77;52.42;95917.03;10254340;28;2781;-48
2022/09/11 21:55:10;;;;;;;;;;;;;;;21.75;52.44;95910.47;10256953;28;3408;-48
2022/09/11 22:00:11;;;;;;;;;;;;;;;21.73;52.67;95916.03;10256240;28;3398;-48
2022/09/11 22:05:12;;;;;;;;;;;;;;;21.73;52.05;95918.66;10255294;28;2742;-48
2022/09/11 22:10:12;;;;;;;;;;;;;;;21.72;51.88;95916.31;10272805;28;2776;-48
2022/09/11 22:15:18;;;;;;;;;;;;;;;21.73;52.06;95912.59;10251559;28;3361;-48
2022/09/11 22:20:18;;;;;;;;;;;;;;;21.74;51.61;95914.19;10253627;28;3302;-48
2022/09/11 22:25:18;;;;;;;;;;;;;;;21.72;51.83;95909.16;10257445;28;3325;-48
2022/09/11 22:30:19;;;;;;;;;;;;;;;21.71;51.66;95897.03;10253793;28;2765;-48
2022/09/11 22:35:19;;;;;;;;;;;;;;;21.72;51.89;95911.78;10259360;28;2729;-48
2022/09/11 22:40:19;;;;;;;;;;;;;;;21.72;51.45;95903.88;10253021;28;2867;-48
2022/09/11 22:45:20;;;;;;;;;;;;;;;21.73;51.85;95908.09;10245737;28;2704;-48
2022/09/11 22:50:20;;;;;;;;;;;;;;;21.75;51.33;95908.63;10246667;28;2916;-49
2022/09/11 22:55:20;;;;;;;;;;;;;;;21.79;51.24;95908.84;10243962;28;3274;-48
2022/09/11 23:00:21;;;;;;;;;;;;;;;21.77;51.49;95897.78;10244491;28;3318;-48
2022/09/11 23:10:45;;;;;;;;;;;;;;;21.79;51.21;95888.53;10245084;28;2967;-42
2022/09/11 23:15:45;;;;;;;;;;;;;;;21.82;51.14;95903.06;10242169;28;2805;-42
2022/09/11 23:20:45;;;;;;;;;;;;;;;21.83;51.22;95899.34;10240668;28;2886;-41
2022/09/11 23:25:46;;;;;;;;;;;;;;;21.82;51.27;95898.53;10259569;28;3014;-42
2022/09/11 23:30:47;;;;;;;;;;;;;;;21.82;51.05;95889.84;10246722;28;2741;-42
2022/09/11 23:35:47;;;;;;;;;;;;;;;21.84;51.16;95887.72;10250658;28;2822;-41
2022/09/11 23:40:47;;;;;;;;;;;;;;;21.84;51.10;95883.22;10244196;28;3008;-42
2022/09/11 23:45:48;;;;;;;;;;;;;;;21.84;51.04;95877.16;10242223;28;2815;-41
2022/09/11 23:50:48;;;;;;;;;;;;;;;21.84;50.82;95880.56;10244835;28;2879;-49
2022/09/11 23:55:49;;;;;;;;;;;;;;;21.84;51.43;95869.25;10244132;28;2980;-48
